Terminal Aerodrome Forecast
Issued by NWS Grand Forks, ND

Home | Current Version | Previous Version | Graphics & Text | Print | Product List | Glossary On
Versions: 1 2 3 4 5 6 7 8 9 10 11 12 13 14 15 16 17 18 19 20
501
FTUS43 KFGF 051720
TAFFAR
TAF
KFAR 051720Z 0518/0618 18010KT P6SM BKN070
     FM052000 30007KT P6SM SCT100
     FM060100 24005KT P6SM BKN120
     FM061400 18011KT P6SM BKN120=

USA.gov is the U.S. government's official web portal to all federal, state and local government web resources and services.